sensor_id;sensor_type;location;lat;lon;timestamp;temperature;humidity
7445;DHT22;3764;48.126;11.594;2022-12-10T00:01:31;1.70;99.90
7445;DHT22;3764;48.126;11.594;2022-12-10T00:03:59;1.70;99.90
7445;DHT22;3764;48.126;11.594;2022-12-10T00:06:33;1.70;99.90
7445;DHT22;3764;48.126;11.594;2022-12-10T00:09:03;1.70;99.90
7445;DHT22;3764;48.126;11.594;2022-12-10T00:11:30;1.70;99.90
7445;DHT22;3764;48.126;11.594;2022-12-10T00:13:58;1.60;99.90
7445;DHT22;3764;48.126;11.594;2022-12-10T00:16:27;1.60;99.90
7445;DHT22;3764;48.126;11.594;2022-12-10T00:18:54;1.60;99.90
7445;DHT22;3764;48.126;11.594;2022-12-10T00:21:23;1.50;99.90
7445;DHT22;3764;48.126;11.594;2022-12-10T00:23:51;1.50;99.90
7445;DHT22;3764;48.126;11.594;2022-12-10T00:26:21;1.60;99.90
7445;DHT22;3764;48.126;11.594;2022-12-10T00:28:49;1.60;99.90
7445;DHT22;3764;48.126;11.594;2022-12-10T00:31:18;1.60;99.90
7445;DHT22;3764;48.126;11.594;2022-12-10T00:33:46;1.60;99.90
7445;DHT22;3764;48.126;11.594;2022-12-10T00:36:15;1.60;99.90
7445;DHT22;3764;48.126;11.594;2022-12-10T00:38:43;1.60;99.90
7445;DHT22;3764;48.126;11.594;2022-12-10T00:41:11;1.60;99.90
7445;DHT22;3764;48.126;11.594;2022-12-10T00:43:41;1.60;99.90
7445;DHT22;3764;48.126;11.594;2022-12-10T00:46:08;1.60;99.90
7445;DHT22;3764;48.126;11.594;2022-12-10T00:48:36;1.70;99.90
7445;DHT22;3764;48.126;11.594;2022-12-10T00:51:05;1.60;99.90
7445;DHT22;3764;48.126;11.594;2022-12-10T00:53:34;1.70;99.90
7445;DHT22;3764;48.126;11.594;2022-12-10T00:56:01;1.70;99.90
7445;DHT22;3764;48.126;11.594;2022-12-10T00:58:30;1.70;99.90
7445;DHT22;3764;48.126;11.594;2022-12-10T01:01:08;1.70;99.90
7445;DHT22;3764;48.126;11.594;2022-12-10T01:03:36;1.70;99.90
7445;DHT22;3764;48.126;11.594;2022-12-10T01:06:08;1.70;99.90
7445;DHT22;3764;48.126;11.594;2022-12-10T01:08:36;1.70;99.90
7445;DHT22;3764;48.126;11.594;2022-12-10T01:11:03;1.80;99.90
7445;DHT22;3764;48.126;11.594;2022-12-10T01:13:30;1.80;99.90
7445;DHT22;3764;48.126;11.594;2022-12-10T01:16:00;1.80;99.90
7445;DHT22;3764;48.126;11.594;2022-12-10T01:18:29;1.80;99.90
7445;DHT22;3764;48.126;11.594;2022-12-10T01:21:00;1.80;99.90
7445;DHT22;3764;48.126;11.594;2022-12-10T01:23:28;1.80;99.90
7445;DHT22;3764;48.126;11.594;2022-12-10T01:25:59;1.80;99.90
7445;DHT22;3764;48.126;11.594;2022-12-10T01:28:29;1.80;99.90
7445;DHT22;3764;48.126;11.594;2022-12-10T01:31:00;1.80;99.90
7445;DHT22;3764;48.126;11.594;2022-12-10T01:33:30;1.90;99.90
7445;DHT22;3764;48.126;11.594;2022-12-10T01:36:02;1.90;99.90
7445;DHT22;3764;48.126;11.594;2022-12-10T01:38:29;2.00;99.90
7445;DHT22;3764;48.126;11.594;2022-12-10T01:40:56;2.10;99.90
7445;DHT22;3764;48.126;11.594;2022-12-10T01:43:23;2.10;99.90
7445;DHT22;3764;48.126;11.594;2022-12-10T01:45:50;2.10;99.90
7445;DHT22;3764;48.126;11.594;2022-12-10T01:48:18;2.10;99.90
7445;DHT22;3764;48.126;11.594;2022-12-10T01:50:47;2.10;99.90
7445;DHT22;3764;48.126;11.594;2022-12-10T01:53:14;2.20;99.90
7445;DHT22;3764;48.126;11.594;2022-12-10T01:55:45;2.20;99.90
7445;DHT22;3764;48.126;11.594;2022-12-10T01:58:15;2.20;99.90
7445;DHT22;3764;48.126;11.594;2022-12-10T02:00:51;2.20;99.90
7445;DHT22;3764;48.126;11.594;2022-12-10T02:03:26;2.20;99.90
7445;DHT22;3764;48.126;11.594;2022-12-10T02:06:03;2.20;99.90
7445;DHT22;3764;48.126;11.594;2022-12-10T02:08:35;2.10;99.90
7445;DHT22;3764;48.126;11.594;2022-12-10T02:11:10;2.10;99.90
7445;DHT22;3764;48.126;11.594;2022-12-10T02:13:45;2.10;99.90
7445;DHT22;3764;48.126;11.594;2022-12-10T02:16:16;2.10;99.90
7445;DHT22;3764;48.126;11.594;2022-12-10T02:18:48;2.10;99.90
7445;DHT22;3764;48.126;11.594;2022-12-10T02:21:20;2.20;99.90
7445;DHT22;3764;48.126;11.594;2022-12-10T02:23:51;2.20;99.90
7445;DHT22;3764;48.126;11.594;2022-12-10T02:26:26;2.10;99.90
7445;DHT22;3764;48.126;11.594;2022-12-10T02:29:06;2.10;99.90
7445;DHT22;3764;48.126;11.594;2022-12-10T02:31:38;2.10;99.90
7445;DHT22;3764;48.126;11.594;2022-12-10T02:34:08;2.10;99.90
7445;DHT22;3764;48.126;11.594;2022-12-10T02:36:38;2.10;99.90
7445;DHT22;3764;48.126;11.594;2022-12-10T02:39:09;2.10;99.90
7445;DHT22;3764;48.126;11.594;2022-12-10T02:41:40;2.10;99.90
7445;DHT22;3764;48.126;11.594;2022-12-10T02:44:11;2.10;99.90
7445;DHT22;3764;48.126;11.594;2022-12-10T02:46:40;2.10;99.90
7445;DHT22;3764;48.126;11.594;2022-12-10T02:49:08;2.20;99.90
7445;DHT22;3764;48.126;11.594;2022-12-10T02:51:37;2.20;99.90
7445;DHT22;3764;48.126;11.594;2022-12-10T02:54:06;2.20;99.90
7445;DHT22;3764;48.126;11.594;2022-12-10T02:56:36;2.20;99.90
7445;DHT22;3764;48.126;11.594;2022-12-10T02:59:12;2.20;99.90
7445;DHT22;3764;48.126;11.594;2022-12-10T03:01:48;2.20;99.90
7445;DHT22;3764;48.126;11.594;2022-12-10T03:04:24;2.10;99.90
7445;DHT22;3764;48.126;11.594;2022-12-10T03:06:54;2.10;99.90
7445;DHT22;3764;48.126;11.594;2022-12-10T03:09:27;2.10;99.90
7445;DHT22;3764;48.126;11.594;2022-12-10T03:11:59;2.10;99.90
7445;DHT22;3764;48.126;11.594;2022-12-10T03:14:31;2.10;99.90
7445;DHT22;3764;48.126;11.594;2022-12-10T03:17:00;2.10;99.90
7445;DHT22;3764;48.126;11.594;2022-12-10T03:19:32;2.10;99.90
7445;DHT22;3764;48.126;11.594;2022-12-10T03:22:02;2.10;99.90
7445;DHT22;3764;48.126;11.594;2022-12-10T03:24:30;2.00;99.90
7445;DHT22;3764;48.126;11.594;2022-12-10T03:26:59;2.00;99.90
7445;DHT22;3764;48.126;11.594;2022-12-10T03:29:31;2.00;99.90
7445;DHT22;3764;48.126;11.594;2022-12-10T03:32:00;2.00;99.90
7445;DHT22;3764;48.126;11.594;2022-12-10T03:34:27;2.10;99.90
7445;DHT22;3764;48.126;11.594;2022-12-10T03:36:55;2.10;99.90
7445;DHT22;3764;48.126;11.594;2022-12-10T03:39:23;2.10;99.90
7445;DHT22;3764;48.126;11.594;2022-12-10T03:41:50;2.10;99.90
7445;DHT22;3764;48.126;11.594;2022-12-10T03:44:28;2.10;99.90
7445;DHT22;3764;48.126;11.594;2022-12-10T03:46:56;2.10;99.90
7445;DHT22;3764;48.126;11.594;2022-12-10T03:49:24;2.10;99.90
7445;DHT22;3764;48.126;11.594;2022-12-10T03:51:53;2.10;99.90
7445;DHT22;3764;48.126;11.594;2022-12-10T03:54:21;2.10;99.90
7445;DHT22;3764;48.126;11.594;2022-12-10T03:56:48;2.00;99.90
7445;DHT22;3764;48.126;11.594;2022-12-10T03:59:15;2.10;99.90
7445;DHT22;3764;48.126;11.594;2022-12-10T04:01:42;2.10;99.90
7445;DHT22;3764;48.126;11.594;2022-12-10T04:04:11;2.00;99.90
7445;DHT22;3764;48.126;11.594;2022-12-10T04:06:39;2.10;99.90
7445;DHT22;3764;48.126;11.594;2022-12-10T04:09:08;2.10;99.90
7445;DHT22;3764;48.126;11.594;2022-12-10T04:11:35;2.00;99.90
7445;DHT22;3764;48.126;11.594;2022-12-10T04:14:02;2.00;99.90
7445;DHT22;3764;48.126;11.594;2022-12-10T04:16:47;2.00;99.90
7445;DHT22;3764;48.126;11.594;2022-12-10T04:19:17;2.10;99.90
7445;DHT22;3764;48.126;11.594;2022-12-10T04:21:45;2.10;99.90
7445;DHT22;3764;48.126;11.594;2022-12-10T04:24:33;2.10;99.90
7445;DHT22;3764;48.126;11.594;2022-12-10T04:27:21;2.10;99.90
7445;DHT22;3764;48.126;11.594;2022-12-10T04:29:49;2.10;99.90
7445;DHT22;3764;48.126;11.594;2022-12-10T04:32:16;2.00;99.90
7445;DHT22;3764;48.126;11.594;2022-12-10T04:34:45;2.00;99.90
7445;DHT22;3764;48.126;11.594;2022-12-10T04:37:12;2.00;99.90
7445;DHT22;3764;48.126;11.594;2022-12-10T04:39:40;2.00;99.90
7445;DHT22;3764;48.126;11.594;2022-12-10T04:42:07;2.00;99.90
7445;DHT22;3764;48.126;11.594;2022-12-10T04:44:35;2.00;99.90
7445;DHT22;3764;48.126;11.594;2022-12-10T04:47:04;2.00;99.90
7445;DHT22;3764;48.126;11.594;2022-12-10T04:49:32;2.00;99.90
7445;DHT22;3764;48.126;11.594;2022-12-10T04:52:01;2.00;99.90
7445;DHT22;3764;48.126;11.594;2022-12-10T04:54:28;2.00;99.90
7445;DHT22;3764;48.126;11.594;2022-12-10T04:56:55;2.00;99.90
7445;DHT22;3764;48.126;11.594;2022-12-10T04:59:23;1.90;99.90
7445;DHT22;3764;48.126;11.594;2022-12-10T05:01:50;1.90;99.90
7445;DHT22;3764;48.126;11.594;2022-12-10T05:04:18;1.90;99.90
7445;DHT22;3764;48.126;11.594;2022-12-10T05:06:47;1.90;99.90
7445;DHT22;3764;48.126;11.594;2022-12-10T05:09:16;1.90;99.90
7445;DHT22;3764;48.126;11.594;2022-12-10T05:11:43;1.90;99.90
7445;DHT22;3764;48.126;11.594;2022-12-10T05:14:11;1.90;99.90
7445;DHT22;3764;48.126;11.594;2022-12-10T05:16:38;1.90;99.90
7445;DHT22;3764;48.126;11.594;2022-12-10T05:19:05;2.00;99.90
7445;DHT22;3764;48.126;11.594;2022-12-10T05:21:32;1.90;99.90
7445;DHT22;3764;48.126;11.594;2022-12-10T05:24:13;2.00;99.90
7445;DHT22;3764;48.126;11.594;2022-12-10T05:26:42;2.00;99.90
7445;DHT22;3764;48.126;11.594;2022-12-10T05:29:10;1.90;99.90
7445;DHT22;3764;48.126;11.594;2022-12-10T05:31:38;1.90;99.90
7445;DHT22;3764;48.126;11.594;2022-12-10T05:34:05;1.90;99.90
7445;DHT22;3764;48.126;11.594;2022-12-10T05:36:33;1.90;99.90
7445;DHT22;3764;48.126;11.594;2022-12-10T05:39:00;1.90;99.90
7445;DHT22;3764;48.126;11.594;2022-12-10T05:41:29;2.00;99.90
7445;DHT22;3764;48.126;11.594;2022-12-10T05:43:58;1.90;99.90
7445;DHT22;3764;48.126;11.594;2022-12-10T05:46:27;2.00;99.90
7445;DHT22;3764;48.126;11.594;2022-12-10T05:48:55;2.00;99.90
7445;DHT22;3764;48.126;11.594;2022-12-10T05:51:23;1.90;99.90
7445;DHT22;3764;48.126;11.594;2022-12-10T05:53:52;2.00;99.90
7445;DHT22;3764;48.126;11.594;2022-12-10T05:56:21;2.00;99.90
7445;DHT22;3764;48.126;11.594;2022-12-10T05:58:52;1.90;99.90
7445;DHT22;3764;48.126;11.594;2022-12-10T06:01:22;2.00;99.90
7445;DHT22;3764;48.126;11.594;2022-12-10T06:03:49;1.90;99.90
7445;DHT22;3764;48.126;11.594;2022-12-10T06:06:20;1.90;99.90
7445;DHT22;3764;48.126;11.594;2022-12-10T06:08:48;1.90;99.90
7445;DHT22;3764;48.126;11.594;2022-12-10T06:11:15;2.00;99.90
7445;DHT22;3764;48.126;11.594;2022-12-10T06:13:43;2.00;99.90
7445;DHT22;3764;48.126;11.594;2022-12-10T06:16:13;1.90;99.90
7445;DHT22;3764;48.126;11.594;2022-12-10T06:18:42;1.90;99.90
7445;DHT22;3764;48.126;11.594;2022-12-10T06:21:11;1.90;99.90
7445;DHT22;3764;48.126;11.594;2022-12-10T06:23:39;1.90;99.90
7445;DHT22;3764;48.126;11.594;2022-12-10T06:26:08;1.90;99.90
7445;DHT22;3764;48.126;11.594;2022-12-10T06:28:35;1.90;99.90
7445;DHT22;3764;48.126;11.594;2022-12-10T06:31:03;1.90;99.90
7445;DHT22;3764;48.126;11.594;2022-12-10T06:33:30;1.80;99.90
7445;DHT22;3764;48.126;11.594;2022-12-10T06:35:58;1.80;99.90
7445;DHT22;3764;48.126;11.594;2022-12-10T06:38:26;1.70;99.90
7445;DHT22;3764;48.126;11.594;2022-12-10T06:40:55;1.80;99.90
7445;DHT22;3764;48.126;11.594;2022-12-10T06:43:22;1.80;99.90
7445;DHT22;3764;48.126;11.594;2022-12-10T06:45:50;1.70;99.90
7445;DHT22;3764;48.126;11.594;2022-12-10T06:48:17;1.70;99.90
7445;DHT22;3764;48.126;11.594;2022-12-10T06:50:44;1.60;99.90
7445;DHT22;3764;48.126;11.594;2022-12-10T06:53:13;1.60;99.90
7445;DHT22;3764;48.126;11.594;2022-12-10T06:55:40;1.70;99.90
7445;DHT22;3764;48.126;11.594;2022-12-10T06:58:07;1.80;99.90
7445;DHT22;3764;48.126;11.594;2022-12-10T07:00:34;1.80;99.90
7445;DHT22;3764;48.126;11.594;2022-12-10T07:03:01;1.80;99.90
7445;DHT22;3764;48.126;11.594;2022-12-10T07:05:28;1.80;99.90
7445;DHT22;3764;48.126;11.594;2022-12-10T07:07:55;1.80;99.90
7445;DHT22;3764;48.126;11.594;2022-12-10T07:10:24;1.80;99.90
7445;DHT22;3764;48.126;11.594;2022-12-10T07:12:51;1.70;99.90
7445;DHT22;3764;48.126;11.594;2022-12-10T07:15:18;1.80;99.90
7445;DHT22;3764;48.126;11.594;2022-12-10T07:17:45;1.80;99.90
7445;DHT22;3764;48.126;11.594;2022-12-10T07:20:12;1.80;99.90
7445;DHT22;3764;48.126;11.594;2022-12-10T07:22:39;1.80;99.90
7445;DHT22;3764;48.126;11.594;2022-12-10T07:25:07;1.80;99.90
7445;DHT22;3764;48.126;11.594;2022-12-10T07:27:36;1.80;99.90
7445;DHT22;3764;48.126;11.594;2022-12-10T07:30:03;1.80;99.90
7445;DHT22;3764;48.126;11.594;2022-12-10T07:32:30;1.80;99.90
7445;DHT22;3764;48.126;11.594;2022-12-10T07:34:57;1.80;99.90
7445;DHT22;3764;48.126;11.594;2022-12-10T07:37:25;1.90;99.90
7445;DHT22;3764;48.126;11.594;2022-12-10T07:39:52;1.90;99.90
7445;DHT22;3764;48.126;11.594;2022-12-10T07:42:19;1.90;99.90
7445;DHT22;3764;48.126;11.594;2022-12-10T07:44:47;1.80;99.90
7445;DHT22;3764;48.126;11.594;2022-12-10T07:47:15;1.90;99.90
7445;DHT22;3764;48.126;11.594;2022-12-10T07:49:42;1.90;99.90
7445;DHT22;3764;48.126;11.594;2022-12-10T07:52:09;1.90;99.90
7445;DHT22;3764;48.126;11.594;2022-12-10T07:54:36;1.90;99.90
7445;DHT22;3764;48.126;11.594;2022-12-10T07:57:03;1.90;99.90
7445;DHT22;3764;48.126;11.594;2022-12-10T07:59:30;1.90;99.90
7445;DHT22;3764;48.126;11.594;2022-12-10T08:01:59;1.90;99.90
7445;DHT22;3764;48.126;11.594;2022-12-10T08:04:27;1.90;99.90
7445;DHT22;3764;48.126;11.594;2022-12-10T08:06:55;1.80;99.90
7445;DHT22;3764;48.126;11.594;2022-12-10T08:09:22;1.80;99.90
7445;DHT22;3764;48.126;11.594;2022-12-10T08:11:49;1.90;99.90
7445;DHT22;3764;48.126;11.594;2022-12-10T08:14:16;1.80;99.90
7445;DHT22;3764;48.126;11.594;2022-12-10T08:16:43;1.70;99.90
7445;DHT22;3764;48.126;11.594;2022-12-10T08:19:12;1.70;99.90
7445;DHT22;3764;48.126;11.594;2022-12-10T08:21:39;1.70;99.90
7445;DHT22;3764;48.126;11.594;2022-12-10T08:24:06;1.70;99.90
7445;DHT22;3764;48.126;11.594;2022-12-10T08:26:34;1.80;99.90
7445;DHT22;3764;48.126;11.594;2022-12-10T08:29:01;1.80;99.90
7445;DHT22;3764;48.126;11.594;2022-12-10T08:31:29;1.90;99.90
7445;DHT22;3764;48.126;11.594;2022-12-10T08:33:57;1.90;99.90
7445;DHT22;3764;48.126;11.594;2022-12-10T08:36:25;1.90;99.90
7445;DHT22;3764;48.126;11.594;2022-12-10T08:38:52;1.90;99.90
7445;DHT22;3764;48.126;11.594;2022-12-10T08:41:21;1.90;99.90
7445;DHT22;3764;48.126;11.594;2022-12-10T08:43:51;2.00;99.90
7445;DHT22;3764;48.126;11.594;2022-12-10T08:46:18;2.00;99.90
7445;DHT22;3764;48.126;11.594;2022-12-10T08:48:45;2.00;99.90
7445;DHT22;3764;48.126;11.594;2022-12-10T08:51:15;1.90;99.90
7445;DHT22;3764;48.126;11.594;2022-12-10T08:53:44;2.00;99.90
7445;DHT22;3764;48.126;11.594;2022-12-10T08:56:12;2.00;99.90
7445;DHT22;3764;48.126;11.594;2022-12-10T08:58:39;1.90;99.90
7445;DHT22;3764;48.126;11.594;2022-12-10T09:01:07;1.90;99.90
7445;DHT22;3764;48.126;11.594;2022-12-10T09:03:36;1.90;99.90
7445;DHT22;3764;48.126;11.594;2022-12-10T09:06:04;1.80;99.90
7445;DHT22;3764;48.126;11.594;2022-12-10T09:08:32;1.80;99.90
7445;DHT22;3764;48.126;11.594;2022-12-10T09:11:06;1.80;99.90
7445;DHT22;3764;48.126;11.594;2022-12-10T09:13:33;1.80;99.90
7445;DHT22;3764;48.126;11.594;2022-12-10T09:16:00;1.80;99.90
7445;DHT22;3764;48.126;11.594;2022-12-10T09:18:27;1.80;99.90
7445;DHT22;3764;48.126;11.594;2022-12-10T09:20:55;1.90;99.90
7445;DHT22;3764;48.126;11.594;2022-12-10T09:23:22;1.90;99.90
7445;DHT22;3764;48.126;11.594;2022-12-10T09:25:49;1.90;99.90
7445;DHT22;3764;48.126;11.594;2022-12-10T09:28:18;1.90;99.90
7445;DHT22;3764;48.126;11.594;2022-12-10T09:30:50;1.90;99.90
7445;DHT22;3764;48.126;11.594;2022-12-10T09:33:21;1.90;99.90
7445;DHT22;3764;48.126;11.594;2022-12-10T09:35:48;1.90;99.90
7445;DHT22;3764;48.126;11.594;2022-12-10T09:40:49;1.90;99.90
7445;DHT22;3764;48.126;11.594;2022-12-10T09:43:23;1.90;99.90
7445;DHT22;3764;48.126;11.594;2022-12-10T09:46:01;1.90;99.90
7445;DHT22;3764;48.126;11.594;2022-12-10T09:48:36;2.00;99.90
7445;DHT22;3764;48.126;11.594;2022-12-10T09:51:12;2.00;99.90
7445;DHT22;3764;48.126;11.594;2022-12-10T09:53:40;2.00;99.90
7445;DHT22;3764;48.126;11.594;2022-12-10T09:56:17;2.00;99.90
7445;DHT22;3764;48.126;11.594;2022-12-10T09:58:47;2.00;99.90
7445;DHT22;3764;48.126;11.594;2022-12-10T10:01:16;1.90;99.90
7445;DHT22;3764;48.126;11.594;2022-12-10T10:03:44;1.90;99.90
7445;DHT22;3764;48.126;11.594;2022-12-10T10:06:13;1.90;99.90
7445;DHT22;3764;48.126;11.594;2022-12-10T10:08:41;1.90;99.90
7445;DHT22;3764;48.126;11.594;2022-12-10T10:11:12;1.90;99.90
7445;DHT22;3764;48.126;11.594;2022-12-10T10:13:42;1.90;99.90
7445;DHT22;3764;48.126;11.594;2022-12-10T10:16:23;1.90;99.90
7445;DHT22;3764;48.126;11.594;2022-12-10T10:18:56;2.00;99.90
7445;DHT22;3764;48.126;11.594;2022-12-10T10:21:27;2.00;99.90
7445;DHT22;3764;48.126;11.594;2022-12-10T10:23:56;2.00;99.90
7445;DHT22;3764;48.126;11.594;2022-12-10T10:26:24;2.00;99.90
7445;DHT22;3764;48.126;11.594;2022-12-10T10:28:57;2.00;99.90
7445;DHT22;3764;48.126;11.594;2022-12-10T10:31:28;2.00;99.90
7445;DHT22;3764;48.126;11.594;2022-12-10T10:33:58;2.00;99.90
7445;DHT22;3764;48.126;11.594;2022-12-10T10:36:28;2.00;99.90
7445;DHT22;3764;48.126;11.594;2022-12-10T10:38:55;1.90;99.90
7445;DHT22;3764;48.126;11.594;2022-12-10T10:41:23;1.90;99.90
7445;DHT22;3764;48.126;11.594;2022-12-10T10:43:58;1.90;99.90
7445;DHT22;3764;48.126;11.594;2022-12-10T10:46:27;2.00;99.90
7445;DHT22;3764;48.126;11.594;2022-12-10T10:49:14;2.00;99.90
7445;DHT22;3764;48.126;11.594;2022-12-10T10:51:44;1.90;99.90
7445;DHT22;3764;48.126;11.594;2022-12-10T10:54:11;2.00;99.90
7445;DHT22;3764;48.126;11.594;2022-12-10T10:56:40;1.90;99.90
7445;DHT22;3764;48.126;11.594;2022-12-10T10:59:27;1.90;99.90
7445;DHT22;3764;48.126;11.594;2022-12-10T11:02:01;2.00;99.90
7445;DHT22;3764;48.126;11.594;2022-12-10T11:04:36;1.90;99.90
7445;DHT22;3764;48.126;11.594;2022-12-10T11:07:05;2.00;99.90
7445;DHT22;3764;48.126;11.594;2022-12-10T11:09:40;2.00;99.90
7445;DHT22;3764;48.126;11.594;2022-12-10T11:12:33;2.00;99.90
7445;DHT22;3764;48.126;11.594;2022-12-10T11:15:02;2.00;99.90
7445;DHT22;3764;48.126;11.594;2022-12-10T11:17:31;2.00;99.90
7445;DHT22;3764;48.126;11.594;2022-12-10T11:20:01;2.00;99.90
7445;DHT22;3764;48.126;11.594;2022-12-10T11:22:31;2.00;99.90
7445;DHT22;3764;48.126;11.594;2022-12-10T11:25:00;2.00;99.90
7445;DHT22;3764;48.126;11.594;2022-12-10T11:27:38;2.00;99.90
7445;DHT22;3764;48.126;11.594;2022-12-10T11:30:15;2.00;99.90
7445;DHT22;3764;48.126;11.594;2022-12-10T11:33:17;2.00;99.90
7445;DHT22;3764;48.126;11.594;2022-12-10T11:35:52;1.90;99.90
7445;DHT22;3764;48.126;11.594;2022-12-10T11:38:26;1.90;99.90
7445;DHT22;3764;48.126;11.594;2022-12-10T11:41:00;1.90;99.90
7445;DHT22;3764;48.126;11.594;2022-12-10T11:43:47;1.90;99.90
7445;DHT22;3764;48.126;11.594;2022-12-10T11:46:39;1.90;99.90
7445;DHT22;3764;48.126;11.594;2022-12-10T11:49:21;1.90;99.90
7445;DHT22;3764;48.126;11.594;2022-12-10T11:51:54;1.90;99.90
7445;DHT22;3764;48.126;11.594;2022-12-10T11:54:51;1.90;99.90
7445;DHT22;3764;48.126;11.594;2022-12-10T11:57:30;2.00;99.90
7445;DHT22;3764;48.126;11.594;2022-12-10T12:00:13;2.00;99.90
7445;DHT22;3764;48.126;11.594;2022-12-10T12:03:07;2.00;99.90
7445;DHT22;3764;48.126;11.594;2022-12-10T12:05:58;2.00;99.90
7445;DHT22;3764;48.126;11.594;2022-12-10T12:08:35;2.00;99.90
7445;DHT22;3764;48.126;11.594;2022-12-10T12:14:00;2.00;99.90
7445;DHT22;3764;48.126;11.594;2022-12-10T12:16:31;2.00;99.90
7445;DHT22;3764;48.126;11.594;2022-12-10T12:19:04;2.00;99.90
7445;DHT22;3764;48.126;11.594;2022-12-10T12:21:36;2.00;99.90
7445;DHT22;3764;48.126;11.594;2022-12-10T12:24:09;2.00;99.90
7445;DHT22;3764;48.126;11.594;2022-12-10T12:26:40;2.00;99.90
7445;DHT22;3764;48.126;11.594;2022-12-10T12:29:14;2.00;99.90
7445;DHT22;3764;48.126;11.594;2022-12-10T12:31:47;2.00;99.90
7445;DHT22;3764;48.126;11.594;2022-12-10T12:34:20;2.00;99.90
7445;DHT22;3764;48.126;11.594;2022-12-10T12:36:50;2.00;99.90
7445;DHT22;3764;48.126;11.594;2022-12-10T12:39:26;2.00;99.90
7445;DHT22;3764;48.126;11.594;2022-12-10T12:41:59;2.00;99.90
7445;DHT22;3764;48.126;11.594;2022-12-10T12:44:32;2.00;99.90
7445;DHT22;3764;48.126;11.594;2022-12-10T12:47:10;2.00;99.90
7445;DHT22;3764;48.126;11.594;2022-12-10T12:49:40;2.00;99.90
7445;DHT22;3764;48.126;11.594;2022-12-10T12:52:27;1.90;99.90
7445;DHT22;3764;48.126;11.594;2022-12-10T12:55:00;1.90;99.90
7445;DHT22;3764;48.126;11.594;2022-12-10T12:57:32;1.90;99.90
7445;DHT22;3764;48.126;11.594;2022-12-10T13:00:08;1.90;99.90
7445;DHT22;3764;48.126;11.594;2022-12-10T13:02:47;1.90;99.90
7445;DHT22;3764;48.126;11.594;2022-12-10T13:05:20;1.90;99.90
7445;DHT22;3764;48.126;11.594;2022-12-10T13:08:22;1.90;99.90
7445;DHT22;3764;48.126;11.594;2022-12-10T13:10:52;1.90;99.90
7445;DHT22;3764;48.126;11.594;2022-12-10T13:13:24;1.90;99.90
7445;DHT22;3764;48.126;11.594;2022-12-10T13:15:52;1.90;99.90
7445;DHT22;3764;48.126;11.594;2022-12-10T13:18:23;1.90;99.90
7445;DHT22;3764;48.126;11.594;2022-12-10T13:24:09;1.90;99.90
7445;DHT22;3764;48.126;11.594;2022-12-10T13:26:40;2.00;99.90
7445;DHT22;3764;48.126;11.594;2022-12-10T13:29:23;2.00;99.90
7445;DHT22;3764;48.126;11.594;2022-12-10T13:31:57;2.00;99.90
7445;DHT22;3764;48.126;11.594;2022-12-10T13:34:33;2.00;99.90
7445;DHT22;3764;48.126;11.594;2022-12-10T13:39:53;2.00;99.90
7445;DHT22;3764;48.126;11.594;2022-12-10T13:42:33;2.00;99.90
7445;DHT22;3764;48.126;11.594;2022-12-10T13:45:31;2.00;99.90
7445;DHT22;3764;48.126;11.594;2022-12-10T13:48:25;2.00;99.90
7445;DHT22;3764;48.126;11.594;2022-12-10T13:51:01;2.00;99.90
7445;DHT22;3764;48.126;11.594;2022-12-10T13:53:39;2.00;99.90
7445;DHT22;3764;48.126;11.594;2022-12-10T13:56:13;2.00;99.90
7445;DHT22;3764;48.126;11.594;2022-12-10T13:58:50;2.00;99.90
7445;DHT22;3764;48.126;11.594;2022-12-10T14:01:33;2.00;99.90
7445;DHT22;3764;48.126;11.594;2022-12-10T14:04:26;2.00;99.90
7445;DHT22;3764;48.126;11.594;2022-12-10T14:06:58;1.90;99.90
7445;DHT22;3764;48.126;11.594;2022-12-10T14:09:29;1.90;99.90
7445;DHT22;3764;48.126;11.594;2022-12-10T14:12:02;1.90;99.90
7445;DHT22;3764;48.126;11.594;2022-12-10T14:14:32;1.90;99.90
7445;DHT22;3764;48.126;11.594;2022-12-10T14:17:01;1.80;99.90
7445;DHT22;3764;48.126;11.594;2022-12-10T14:19:29;1.80;99.90
7445;DHT22;3764;48.126;11.594;2022-12-10T14:21:57;1.80;99.90
7445;DHT22;3764;48.126;11.594;2022-12-10T14:24:30;1.80;99.90
7445;DHT22;3764;48.126;11.594;2022-12-10T14:27:01;1.80;99.90
7445;DHT22;3764;48.126;11.594;2022-12-10T14:29:29;1.70;99.90
7445;DHT22;3764;48.126;11.594;2022-12-10T14:31:56;1.70;99.90
7445;DHT22;3764;48.126;11.594;2022-12-10T14:34:26;1.70;99.90
7445;DHT22;3764;48.126;11.594;2022-12-10T14:36:56;1.70;99.90
7445;DHT22;3764;48.126;11.594;2022-12-10T14:39:26;1.70;99.90
7445;DHT22;3764;48.126;11.594;2022-12-10T14:41:57;1.70;99.90
7445;DHT22;3764;48.126;11.594;2022-12-10T14:44:27;1.60;99.90
7445;DHT22;3764;48.126;11.594;2022-12-10T14:47:04;1.60;99.90
7445;DHT22;3764;48.126;11.594;2022-12-10T14:49:31;1.60;99.90
7445;DHT22;3764;48.126;11.594;2022-12-10T14:52:00;1.60;99.90
7445;DHT22;3764;48.126;11.594;2022-12-10T14:54:30;1.60;99.90
7445;DHT22;3764;48.126;11.594;2022-12-10T14:57:01;1.70;99.90
7445;DHT22;3764;48.126;11.594;2022-12-10T14:59:34;1.60;99.90
7445;DHT22;3764;48.126;11.594;2022-12-10T15:02:12;1.70;99.90
7445;DHT22;3764;48.126;11.594;2022-12-10T15:04:43;1.60;99.90
7445;DHT22;3764;48.126;11.594;2022-12-10T15:07:14;1.60;99.90
7445;DHT22;3764;48.126;11.594;2022-12-10T15:09:45;1.60;99.90
7445;DHT22;3764;48.126;11.594;2022-12-10T15:12:26;1.60;99.90
7445;DHT22;3764;48.126;11.594;2022-12-10T15:14:57;1.60;99.90
7445;DHT22;3764;48.126;11.594;2022-12-10T15:17:40;1.60;99.90
7445;DHT22;3764;48.126;11.594;2022-12-10T15:20:23;1.60;99.90
7445;DHT22;3764;48.126;11.594;2022-12-10T15:22:50;1.60;99.90
7445;DHT22;3764;48.126;11.594;2022-12-10T15:25:23;1.70;99.90
7445;DHT22;3764;48.126;11.594;2022-12-10T15:27:59;1.70;99.90
7445;DHT22;3764;48.126;11.594;2022-12-10T15:30:38;1.70;99.90
7445;DHT22;3764;48.126;11.594;2022-12-10T15:33:29;1.70;99.90
7445;DHT22;3764;48.126;11.594;2022-12-10T15:35:58;1.70;99.90
7445;DHT22;3764;48.126;11.594;2022-12-10T15:38:26;1.70;99.90
7445;DHT22;3764;48.126;11.594;2022-12-10T15:40:58;1.70;99.90
7445;DHT22;3764;48.126;11.594;2022-12-10T15:43:27;1.60;99.90
7445;DHT22;3764;48.126;11.594;2022-12-10T15:45:57;1.60;99.90
7445;DHT22;3764;48.126;11.594;2022-12-10T15:48:28;1.60;99.90
7445;DHT22;3764;48.126;11.594;2022-12-10T15:50:55;1.60;99.90
7445;DHT22;3764;48.126;11.594;2022-12-10T15:53:27;1.60;99.90
7445;DHT22;3764;48.126;11.594;2022-12-10T15:55:55;1.60;99.90
7445;DHT22;3764;48.126;11.594;2022-12-10T15:58:22;1.60;99.90
7445;DHT22;3764;48.126;11.594;2022-12-10T16:00:49;1.50;99.90
7445;DHT22;3764;48.126;11.594;2022-12-10T16:03:18;1.60;99.90
7445;DHT22;3764;48.126;11.594;2022-12-10T16:05:46;1.60;99.90
7445;DHT22;3764;48.126;11.594;2022-12-10T16:08:18;1.60;99.90
7445;DHT22;3764;48.126;11.594;2022-12-10T16:10:47;1.50;99.90
7445;DHT22;3764;48.126;11.594;2022-12-10T16:13:17;1.40;99.90
7445;DHT22;3764;48.126;11.594;2022-12-10T16:15:48;1.40;99.90
7445;DHT22;3764;48.126;11.594;2022-12-10T16:18:18;1.50;99.90
7445;DHT22;3764;48.126;11.594;2022-12-10T16:20:45;1.40;99.90
7445;DHT22;3764;48.126;11.594;2022-12-10T16:23:13;1.40;99.90
7445;DHT22;3764;48.126;11.594;2022-12-10T16:25:42;1.40;99.90
7445;DHT22;3764;48.126;11.594;2022-12-10T16:28:11;1.40;99.90
7445;DHT22;3764;48.126;11.594;2022-12-10T16:30:42;1.30;99.90
7445;DHT22;3764;48.126;11.594;2022-12-10T16:33:11;1.30;99.90
7445;DHT22;3764;48.126;11.594;2022-12-10T16:35:39;1.30;99.90
7445;DHT22;3764;48.126;11.594;2022-12-10T16:38:08;1.20;99.90